Latest Weather Observations for Portland Harbour

IDV60801

Issued at 9:35 pm EST Thursday 17 April 2014 (issued every 30 minutes, with the page automatically refreshed every 10 minutes)

About weather observations | Map of weather stations | Latest weather observations for VIC | Other Formats
Station Details ID: 090192 Name: PORTLAND NTC AWS Lat: -38.34 Lon: 141.61 Height: 0.0 m
Data from the previous 72 hours. | See also: Recent months for locations in Victoria
Date/Time
EST
Temp
°C
App
Temp
°C
Dew
Point
Rel
Hum
%
Delta-T
°C
Wind Press
QNH
hPa
Press
MSL
hPa
Rain
since 9 am
mm
Dir
 
Spd
km/h
Gust
km/h
Spd
kts
Gust
kts
17/09:30pm 13.0 - - - - NNW 13 15 7 8 1017.9 - -
17/09:00pm 13.5 - - - - NNW 13 17 7 9 1018.0 1018.0 -
17/08:30pm 13.9 - - - - NNW 13 15 7 8 1017.9 - -
17/08:00pm 14.0 - - - - NW 9 11 5 6 1017.9 1017.9 -
17/07:30pm 14.3 - - - - NW 7 11 4 6 1017.9 - -
17/07:00pm 14.5 - - - - WNW 6 7 3 4 1017.8 1017.8 -
17/06:30pm 15.1 - - - - W 6 7 3 4 1017.9 - -
17/06:00pm 15.8 - - - - W 7 11 4 6 1018.0 1018.0 -
17/05:30pm 16.3 - - - - W 11 17 6 9 1018.0 - -
17/05:00pm 17.0 - - - - W 15 22 8 12 1018.1 1018.1 -
17/04:30pm 17.0 - - - - WSW 20 26 11 14 1018.1 - -
17/04:00pm 17.3 - - - - WSW 20 28 11 15 1018.4 1018.4 -
17/03:30pm 17.4 - - - - W 24 32 13 17 1018.4 - -
17/03:00pm 17.2 - - - - W 22 30 12 16 1018.3 1018.3 -
17/02:30pm 16.7 - - - - SW 22 32 12 17 1018.5 - -
17/02:00pm 18.2 - - - - WSW 17 22 9 12 1018.4 1018.4 -
17/01:30pm 18.3 - - - - WSW 17 22 9 12 1018.6 - -
17/01:00pm 19.0 - - - - NW 13 20 7 11 1018.8 1018.8 -
17/12:30pm 18.2 - - - - N 20 26 11 14 1019.1 - -
17/12:00pm 17.9 - - - - NNW 17 22 9 12 1019.5 1019.5 -
17/11:30am 17.1 - - - - NNW 17 24 9 13 1019.7 - -
17/11:00am 16.2 - - - - NNW 13 20 7 11 1019.8 1019.8 -
17/10:30am 15.7 - - - - NW 17 26 9 14 1020.1 - -
17/10:00am 15.3 - - - - NW 11 20 6 11 1020.1 1020.1 -
17/09:30am 14.1 - - - - NW 6 11 3 6 1020.1 - -
17/09:00am 13.3 - - - - NW 7 9 4 5 1020.1 1020.1 -
17/08:30am 12.3 - - - - NW 4 6 2 3 1020.1 - -
17/08:00am 11.0 - - - - WSW 4 6 2 3 1019.9 1019.9 -
17/07:30am 10.2 - - - - WSW 7 9 4 5 1019.6 - -
17/07:00am 9.6 - - - - WSW 6 11 3 6 1019.5 1019.5 -
17/06:30am 10.1 - - - - WSW 2 4 1 2 1019.3 - -
17/06:00am 9.1 - - - - WNW 6 7 3 4 1019.3 1019.3 -
17/05:30am 9.1 - - - - W 7 9 4 5 1019.3 - -
17/05:00am 9.4 - - - - W 6 7 3 4 1019.0 1019.0 -
17/04:30am 9.3 - - - - WSW 6 7 3 4 1019.0 - -
17/04:00am 10.0 - - - - W 6 7 3 4 1018.8 1018.8 -
17/03:30am 10.1 - - - - W 4 6 2 3 1018.7 - -
17/03:00am 10.9 - - - - NW 4 6 2 3 1018.8 1018.8 -
17/02:30am 10.7 - - - - WSW 2 4 1 2 1019.0 - -
17/02:00am 10.3 - - - - W 6 7 3 4 1019.2 1019.2 -
17/01:30am 11.4 - - - - W 2 4 1 2 1019.1 - -
17/01:00am 12.0 - - - - WNW 4 6 2 3 1019.1 1019.1 -
17/12:30am 11.9 - - - - SW 4 6 2 3 1019.0 - -
17/12:00am 12.1 - - - - WSW 4 6 2 3 1019.3 1019.3 -
 
Date/Time
EST
Temp
°C
App
Temp
°C
Dew
Point
Rel
Hum
%
Delta-T
°C
Wind Press
QNH
hPa
Press
MSL
hPa
Rain
since 9 am
mm
Dir
 
Spd
km/h
Gust
km/h
Spd
kts
Gust
kts
16/11:30pm 13.3 - - - - N 7 11 4 6 1019.3 - -
16/11:00pm 13.5 - - - - N 9 11 5 6 1019.5 1019.5 -
16/10:30pm 13.5 - - - - NW 4 6 2 3 1019.5 - -
16/10:00pm 13.5 - - - - NW 4 6 2 3 1019.7 1019.7 -
16/09:30pm 13.6 - - - - NW 6 9 3 5 1019.5 - -
16/09:00pm 13.9 - - - - WSW 6 7 3 4 1019.4 1019.4 -
16/08:30pm 13.9 - - - - WSW 7 9 4 5 1019.4 - -
16/08:00pm 14.3 - - - - WSW 9 11 5 6 1019.0 1019.0 -
16/07:30pm 14.7 - - - - W 7 11 4 6 1019.0 - -
16/07:00pm 14.8 - - - - NW 7 9 4 5 1018.8 1018.8 -
16/06:30pm 15.1 - - - - WNW 7 11 4 6 1019.0 - -
16/06:00pm 15.4 - - - - W 9 13 5 7 1019.1 1019.1 -
16/05:30pm 15.8 - - - - W 11 13 6 7 1018.8 - -
16/05:00pm 16.3 - - - - WSW 11 15 6 8 1018.8 1018.8 -
16/04:30pm 16.4 - - - - WSW 15 19 8 10 1018.8 - -
16/04:00pm 17.1 - - - - WSW 15 22 8 12 1018.8 1018.8 -
16/03:30pm 17.4 - - - - WSW 17 20 9 11 1018.8 - -
16/03:00pm 17.3 - - - - SW 19 26 10 14 1018.6 1018.6 -
16/02:30pm 17.9 - - - - WSW 20 26 11 14 1018.5 - -
16/02:00pm 17.6 - - - - WSW 19 24 10 13 1018.6 1018.6 -
16/01:30pm 17.1 - - - - SE 9 11 5 6 1018.5 - -
16/01:00pm 16.4 - - - - E 6 9 3 5 1018.7 1018.7 -
16/12:30pm 16.1 - - - - ENE 6 7 3 4 1019.2 - -
16/12:00pm 15.7 - - - - E 6 7 3 4 1019.5 1019.5 -
16/11:30am 14.9 - - - - ENE 6 7 3 4 1019.6 - -
16/11:00am 14.4 - - - - NE 6 7 3 4 1019.7 1019.7 -
16/10:30am 14.0 - - - - NNE 6 7 3 4 1019.9 - -
16/10:00am 13.7 - - - - N 4 6 2 3 1020.3 1020.3 -
16/09:30am 13.7 - - - - NNE 4 7 2 4 1020.5 - -
16/09:00am 13.6 - - - - NNE 7 11 4 6 1020.4 1020.4 -
16/08:30am 13.4 - - - - NNE 7 11 4 6 1020.6 - -
16/08:00am 13.3 - - - - NNE 11 15 6 8 1020.6 1020.6 -
16/07:30am 13.4 - - - - NNE 13 17 7 9 1020.5 - -
16/07:00am 13.4 - - - - N 9 15 5 8 1020.2 1020.2 -
16/06:30am 13.8 - - - - N 9 13 5 7 1020.2 - -
16/06:00am 13.9 - - - - N 11 13 6 7 1020.3 1020.3 -
16/05:30am 13.6 - - - - NNE 13 17 7 9 1020.3 - -
16/05:00am 15.3 - - - - NE 19 22 10 12 1020.1 1020.1 -
16/04:30am 15.2 - - - - NE 20 22 11 12 1020.2 - -
16/04:00am 15.1 - - - - NE 17 20 9 11 1020.6 1020.6 -
16/03:30am 15.3 - - - - NE 15 19 8 10 1020.8 - -
16/03:00am 14.8 - - - - NE 15 17 8 9 1021.0 1021.0 -
16/02:30am 14.7 - - - - NE 15 17 8 9 1021.6 - -
16/02:00am 14.8 - - - - NE 13 17 7 9 1022.1 1022.1 -
16/01:30am 14.8 - - - - NE 15 19 8 10 1022.0 - -
16/01:00am 14.9 - - - - NE 17 20 9 11 1022.0 1022.0 -
16/12:30am 15.5 - - - - NE 17 22 9 12 1022.2 - -
16/12:00am 15.9 - - - - E 20 26 11 14 1022.1 1022.1 -
 
Date/Time
EST
Temp
°C
App
Temp
°C
Dew
Point
Rel
Hum
%
Delta-T
°C
Wind Press
QNH
hPa
Press
MSL
hPa
Rain
since 9 am
mm
Dir
 
Spd
km/h
Gust
km/h
Spd
kts
Gust
kts
15/11:30pm 15.9 - - - - E 19 22 10 12 1022.4 - -
15/11:00pm 16.1 - - - - E 19 22 10 12 1022.7 1022.7 -
15/10:30pm 15.9 - - - - E 19 24 10 13 1023.1 - -
15/10:00pm 15.9 - - - - E 19 24 10 13 1023.3 1023.3 -
15/09:30pm 15.9 - - - - E 19 24 10 13 1023.2 - -
15/09:00pm 15.9 - - - - ESE 19 24 10 13 1023.1 1023.1 -
15/08:30pm 15.7 - - - - ESE 19 24 10 13 1023.2 - -
15/08:00pm 15.9 - - - - SE 19 24 10 13 1023.3 1023.3 -
15/07:30pm 15.9 - - - - SE 20 26 11 14 1023.5 - -
15/07:00pm 15.9 - - - - SE 20 28 11 15 1023.6 1023.6 -
15/06:30pm 15.9 - - - - SE 20 26 11 14 1023.3 - -
15/06:00pm 16.1 - - - - SE 22 28 12 15 1023.0 1023.0 -
15/05:30pm 16.0 - - - - SE 20 26 11 14 1023.0 - -
15/05:00pm 16.3 - - - - SE 22 28 12 15 1022.9 1022.9 -
15/04:30pm 16.5 - - - - SE 20 30 11 16 1022.8 - -
15/04:00pm 16.5 - - - - SE 20 24 11 13 1022.8 1022.8 -
15/03:30pm 16.6 - - - - SE 20 26 11 14 1022.9 - -
15/03:00pm 16.7 - - - - SE 20 24 11 13 1023.0 1023.0 -
15/02:30pm 16.5 - - - - ESE 20 24 11 13 1023.0 - -
15/02:00pm 16.5 - - - - ESE 19 24 10 13 1023.0 1023.0 -
15/01:30pm 16.3 - - - - ESE 19 26 10 14 1023.4 - -
15/01:00pm 15.8 - - - - ESE 15 22 8 12 1023.9 1023.9 -
15/12:30pm 15.8 - - - - E 17 24 9 13 1024.2 - -
15/12:00pm 15.0 - - - - ENE 13 20 7 11 1024.6 1024.6 -
15/11:30am 14.7 - - - - NNE 9 11 5 6 1025.0 - -
15/11:00am 16.4 - - - - ESE 15 20 8 11 1025.0 1025.0 -
15/10:30am 16.2 - - - - ESE 17 22 9 12 1025.2 - -
15/10:00am 16.2 - - - - ESE 20 26 11 14 1025.2 1025.2 -
15/09:30am 16.2 - - - - ESE 20 26 11 14 1025.1 - -
15/09:00am 16.0 - - - - ESE 20 24 11 13 1025.1 1025.1 -
15/08:30am 15.9 - - - - ESE 20 26 11 14 1025.0 - -
15/08:00am 15.6 - - - - ESE 22 28 12 15 1024.8 1024.8 -
15/07:30am 15.3 - - - - SE 24 32 13 17 1024.6 - -
15/07:00am 15.3 - - - - SE 24 30 13 16 1024.3 1024.3 -
15/06:30am 15.5 - - - - SSE 19 26 10 14 1024.3 - -
15/06:00am 15.8 - - - - SSE 19 22 10 12 1024.1 1024.1 -
15/05:30am 15.9 - - - - SE 17 20 9 11 1024.1 - -
15/05:00am 15.9 - - - - SE 19 24 10 13 1023.9 1023.9 -
15/04:30am 16.3 - - - - SE 20 24 11 13 1023.8 - -
15/04:00am 16.2 - - - - SE 19 22 10 12 1023.8 1023.8 -
15/03:30am 16.3 - - - - SE 19 24 10 13 1023.8 - -
15/03:00am 16.3 - - - - SE 19 24 10 13 1023.9 1023.9 -
15/02:30am 16.2 - - - - SE 19 24 10 13 1024.2 - -
15/02:00am 16.1 - - - - SE 19 24 10 13 1024.3 1024.3 -
15/01:30am 16.2 - - - - SE 20 24 11 13 1024.3 - -
15/01:00am 16.4 - - - - SSE 13 17 7 9 1024.2 1024.2 -
15/12:30am 16.5 - - - - ESE 15 20 8 11 1024.2 - -
15/12:00am 16.7 - - - - SE 17 22 9 12 1024.3 1024.3 -
 
Date/Time
EST
Temp
°C
App
Temp
°C
Dew
Point
Rel
Hum
%
Delta-T
°C
Wind Press
QNH
hPa
Press
MSL
hPa
Rain
since 9 am
mm
Dir
 
Spd
km/h
Gust
km/h
Spd
kts
Gust
kts
14/11:30pm 16.5 - - - - SE 17 24 9 13 1024.4 - -
14/11:00pm 16.5 - - - - SE 15 20 8 11 1024.6 1024.6 -
14/10:30pm 16.4 - - - - SE 15 19 8 10 1024.8 - -
14/10:00pm 16.4 - - - - SE 17 19 9 10 1024.9 1024.9 -

Other Formats:

Comma delimited format used in spreadsheet applications
http://www.bom.gov.au/fwo/IDV60801/IDV60801.95826.axf

JavaScript Object Notation format (JSON) in row-major order
http://www.bom.gov.au/fwo/IDV60801/IDV60801.95826.json